Time;durP1;ratioP1;P1;durP2;ratioP2;P2;SDS_P1;SDS_P2;PMS_P1;PMS_P2;Temp;Humidity;BMP_temperature;BMP_pressure;BME280_temperature;BME280_humidity;BME280_pressure;Samples;Min_cycle;Max_cycle;Signal;HPM_P1;HPM_P2
2023/01/20 00:03:30;;;;;;;24.83;11.37;;;;;1.60;95508.00;;;;8330880;28;20225;-71
2023/01/20 00:07:35;;;;;;;20.90;10.33;;;;;1.60;95502.00;;;;8331110;28;20229;-71
2023/01/20 00:11:40;;;;;;;19.03;10.00;;;;;1.60;95496.00;;;;8330065;28;20201;-71
2023/01/20 00:15:46;;;;;;;21.57;11.47;;;;;1.60;95503.00;;;;8331263;28;20192;-71
2023/01/20 00:19:49;;;;;;;21.40;11.30;;;;;1.60;95491.00;;;;8335804;28;20285;-71
2023/01/20 00:23:56;;;;;;;25.30;11.93;;;;;1.50;95483.00;;;;8337301;28;20283;-71
2023/01/20 00:27:59;;;;;;;25.80;11.90;;;;;1.50;95493.00;;;;8333109;28;20218;-71
2023/01/20 00:32:03;;;;;;;29.60;12.13;;;;;1.40;95488.00;;;;8337112;28;20196;-71
2023/01/20 00:36:12;;;;;;;23.50;12.03;;;;;1.50;95500.00;;;;8335925;28;20199;-71
2023/01/20 00:40:20;;;;;;;28.20;13.10;;;;;1.50;95503.00;;;;8318817;28;20199;-71
2023/01/20 00:44:23;;;;;;;25.73;12.00;;;;;1.40;95523.00;;;;8336235;28;20261;-72
2023/01/20 00:48:29;;;;;;;23.67;10.87;;;;;1.30;95523.00;;;;8318631;28;20694;-71
2023/01/20 00:52:34;;;;;;;24.77;11.40;;;;;1.30;95527.00;;;;8336426;28;20225;-72
2023/01/20 00:56:39;;;;;;;26.47;12.00;;;;;1.30;95536.00;;;;8335853;28;20204;-72
2023/01/20 01:00:47;;;;;;;23.03;11.50;;;;;1.30;95538.00;;;;8335570;28;20203;-72
2023/01/20 01:04:51;;;;;;;27.07;11.67;;;;;1.20;95534.00;;;;8334867;28;20220;-72
2023/01/20 01:08:57;;;;;;;20.13;10.13;;;;;1.20;95540.00;;;;8335523;28;20238;-72
2023/01/20 01:13:02;;;;;;;20.30;9.90;;;;;1.20;95545.00;;;;8318998;28;20223;-72
2023/01/20 01:17:05;;;;;;;19.67;9.93;;;;;1.10;95541.00;;;;8334672;28;20194;-71
2023/01/20 01:21:13;;;;;;;18.47;9.80;;;;;1.10;95539.00;;;;8335065;28;20206;-72
2023/01/20 01:25:25;;;;;;;21.73;9.03;;;;;1.00;95530.00;;;;8334748;28;20192;-71
2023/01/20 01:29:32;;;;;;;19.57;8.47;;;;;1.00;95542.00;;;;8334955;28;20631;-71
2023/01/20 01:33:37;;;;;;;17.07;8.77;;;;;1.00;95542.00;;;;8334348;28;20212;-71
2023/01/20 01:37:40;;;;;;;14.43;7.87;;;;;1.00;95542.00;;;;8335169;28;20203;-71
2023/01/20 01:41:43;;;;;;;17.73;9.73;;;;;1.00;95552.00;;;;8333897;28;20230;-71
2023/01/20 01:45:49;;;;;;;17.03;9.23;;;;;1.00;95557.00;;;;8331552;28;20194;-73
2023/01/20 01:49:54;;;;;;;15.60;9.13;;;;;1.10;95559.00;;;;8333227;28;20577;-71
2023/01/20 01:54:03;;;;;;;21.80;10.03;;;;;1.10;95559.00;;;;8333082;28;20189;-71
2023/01/20 01:58:08;;;;;;;21.90;9.77;;;;;1.00;95555.00;;;;8336530;28;20546;-71
2023/01/20 02:02:13;;;;;;;18.07;9.53;;;;;1.00;95556.00;;;;8334302;28;20515;-71
2023/01/20 02:06:21;;;;;;;18.00;8.80;;;;;1.00;95555.00;;;;8331247;28;20534;-71
2023/01/20 02:10:24;;;;;;;18.63;9.87;;;;;1.00;95549.00;;;;8333992;28;20649;-71
2023/01/20 02:14:32;;;;;;;20.70;9.67;;;;;0.90;95543.00;;;;8332328;28;20618;-71
2023/01/20 02:18:46;;;;;;;17.73;8.97;;;;;0.90;95549.00;;;;8333218;28;20203;-72
2023/01/20 02:22:56;;;;;;;17.23;8.73;;;;;0.70;95537.00;;;;8314971;28;20225;-72
2023/01/20 02:27:12;;;;;;;20.20;9.80;;;;;0.60;95540.00;;;;8333724;28;20192;-72
2023/01/20 02:32:05;;;;;;;17.73;9.13;;;;;0.50;95539.00;;;;8333792;28;20578;-72
2023/01/20 02:36:11;;;;;;;20.40;9.33;;;;;0.40;95538.00;;;;8333820;28;20522;-72
2023/01/20 02:40:27;;;;;;;16.27;9.23;;;;;0.30;95532.00;;;;8331845;28;20551;-71
2023/01/20 02:44:38;;;;;;;24.00;9.93;;;;;0.20;95534.00;;;;8333524;28;20287;-71
2023/01/20 02:48:46;;;;;;;16.53;8.67;;;;;0.10;95539.00;;;;8315075;28;20220;-71
2023/01/20 02:52:53;;;;;;;21.13;10.10;;;;;0.10;95535.00;;;;8332834;28;20586;-71
2023/01/20 02:56:59;;;;;;;17.30;9.83;;;;;0.00;95536.00;;;;8332021;28;20539;-71
2023/01/20 03:01:12;;;;;;;21.67;9.90;;;;;-0.10;95534.00;;;;8356778;23;20202;-73
2023/01/20 03:05:20;;;;;;;18.93;9.40;;;;;-0.10;95548.00;;;;8296719;28;20673;-73
2023/01/20 03:09:27;;;;;;;17.40;9.30;;;;;-0.20;95545.00;;;;8308776;28;20237;-74
2023/01/20 03:13:34;;;;;;;17.93;9.47;;;;;-0.20;95543.00;;;;8305605;28;20198;-75
2023/01/20 03:17:38;;;;;;;18.37;9.97;;;;;-0.20;95540.00;;;;8303633;28;20222;-74
2023/01/20 03:21:46;;;;;;;17.73;9.23;;;;;-0.20;95555.00;;;;8303564;28;20195;-72
2023/01/20 03:25:54;;;;;;;17.63;9.40;;;;;-0.20;95564.00;;;;8295031;28;20833;-72
2023/01/20 03:29:57;;;;;;;17.93;9.40;;;;;-0.10;95572.00;;;;8307760;28;20708;-72
2023/01/20 03:34:03;;;;;;;19.63;10.30;;;;;-0.10;95579.00;;;;8302266;28;20200;-71
2023/01/20 03:38:10;;;;;;;23.07;10.10;;;;;-0.10;95576.00;;;;8310871;28;20217;-72
2023/01/20 03:42:18;;;;;;;19.83;9.90;;;;;0.00;95593.00;;;;8310624;28;20198;-74
2023/01/20 03:46:38;;;;;;;19.00;10.53;;;;;0.10;95591.00;;;;8313923;28;20256;-72
2023/01/20 03:50:47;;;;;;;18.97;9.33;;;;;0.10;95598.00;;;;8311783;28;20871;-74
2023/01/20 03:54:55;;;;;;;19.13;9.97;;;;;0.20;95609.00;;;;8317088;28;20194;-74
2023/01/20 03:59:02;;;;;;;17.87;9.30;;;;;0.20;95614.00;;;;8318165;28;20224;-73
2023/01/20 04:03:10;;;;;;;21.40;9.10;;;;;0.30;95613.00;;;;8295738;28;20243;-74
2023/01/20 04:07:19;;;;;;;18.10;9.27;;;;;0.30;95610.00;;;;8283820;28;20224;-73
2023/01/20 04:11:27;;;;;;;20.70;9.90;;;;;0.40;95621.00;;;;8289970;28;20306;-74
2023/01/20 04:15:34;;;;;;;19.40;10.17;;;;;0.40;95622.00;;;;8285668;28;20200;-74
2023/01/20 04:19:37;;;;;;;22.30;9.93;;;;;0.40;95619.00;;;;8283879;28;20204;-74
2023/01/20 04:23:46;;;;;;;21.20;10.20;;;;;0.50;95629.00;;;;8288115;28;20236;-74
2023/01/20 04:27:52;;;;;;;28.83;12.03;;;;;0.60;95638.00;;;;8287328;28;20533;-74
2023/01/20 04:32:02;;;;;;;27.37;12.17;;;;;0.60;95643.00;;;;8287569;28;20833;-75
2023/01/20 04:36:05;;;;;;;20.77;10.17;;;;;0.60;95642.00;;;;8286877;28;20261;-76
2023/01/20 04:40:10;;;;;;;21.77;9.50;;;;;0.70;95649.00;;;;8288662;28;20204;-75
2023/01/20 04:44:15;;;;;;;18.73;9.57;;;;;0.70;95653.00;;;;8283647;28;20289;-73
2023/01/20 04:48:18;;;;;;;16.70;9.40;;;;;0.80;95648.00;;;;8284420;28;20255;-74
2023/01/20 04:52:21;;;;;;;21.30;10.30;;;;;0.80;95646.00;;;;8284111;28;20204;-76
2023/01/20 04:56:25;;;;;;;16.53;9.20;;;;;0.80;95656.00;;;;8286847;28;20200;-72
2023/01/20 05:00:30;;;;;;;18.70;10.17;;;;;0.90;95656.00;;;;8285994;28;20943;-74
2023/01/20 05:04:36;;;;;;;20.43;10.17;;;;;0.90;95661.00;;;;8283779;28;20414;-76
2023/01/20 05:08:40;;;;;;;25.37;11.27;;;;;0.90;95668.00;;;;8283078;28;20200;-72
2023/01/20 05:12:44;;;;;;;22.90;10.57;;;;;0.90;95672.00;;;;8290730;28;20221;-75
2023/01/20 05:16:48;;;;;;;18.80;9.27;;;;;1.00;95687.00;;;;8286209;28;20305;-74
2023/01/20 05:20:51;;;;;;;20.77;10.30;;;;;1.00;95687.00;;;;8264892;28;20196;-73
2023/01/20 05:24:59;;;;;;;16.83;9.70;;;;;1.00;95691.00;;;;8267998;28;20231;-72
2023/01/20 05:29:13;;;;;;;17.77;9.73;;;;;1.00;95704.00;;;;8253837;28;20278;-72
2023/01/20 05:33:23;;;;;;;19.33;10.07;;;;;1.10;95707.00;;;;8270243;28;20612;-71
2023/01/20 05:37:28;;;;;;;18.30;9.50;;;;;1.00;95717.00;;;;8268831;28;20253;-71
2023/01/20 05:41:33;;;;;;;26.17;11.07;;;;;1.00;95709.00;;;;8268767;28;20691;-72
2023/01/20 05:45:36;;;;;;;47.47;19.03;;;;;1.10;95709.00;;;;8268028;28;20228;-72
2023/01/20 05:49:42;;;;;;;27.87;12.27;;;;;1.10;95723.00;;;;8268384;28;20242;-72
2023/01/20 05:53:45;;;;;;;18.63;10.50;;;;;1.10;95720.00;;;;8267999;28;20250;-72
2023/01/20 05:57:51;;;;;;;28.07;11.87;;;;;1.10;95733.00;;;;8269085;28;20590;-73
2023/01/20 06:01:54;;;;;;;31.17;12.70;;;;;1.00;95730.00;;;;8250853;28;20220;-72
2023/01/20 06:06:02;;;;;;;30.33;13.27;;;;;1.10;95728.00;;;;8267109;28;20307;-73
2023/01/20 06:10:07;;;;;;;182.23;62.03;;;;;1.10;95731.00;;;;8267492;28;20207;-72
2023/01/20 06:14:10;;;;;;;58.27;22.80;;;;;1.20;95733.00;;;;8268121;28;20544;-71
2023/01/20 06:18:22;;;;;;;32.73;16.43;;;;;1.20;95730.00;;;;8267118;28;20205;-72
2023/01/20 06:22:27;;;;;;;21.83;10.30;;;;;1.20;95741.00;;;;8267038;28;20649;-72
2023/01/20 06:26:31;;;;;;;31.97;18.07;;;;;1.20;95743.00;;;;8267791;28;20310;-72
2023/01/20 06:30:34;;;;;;;27.93;15.53;;;;;1.10;95741.00;;;;8267430;28;20201;-72
2023/01/20 06:34:40;;;;;;;25.77;15.30;;;;;1.10;95752.00;;;;8268051;28;20657;-72
2023/01/20 06:38:49;;;;;;;22.23;13.87;;;;;1.10;95753.00;;;;8266166;28;20206;-72
2023/01/20 06:43:02;;;;;;;24.03;14.17;;;;;1.20;95749.00;;;;8267570;28;20198;-74
2023/01/20 06:47:10;;;;;;;24.47;11.37;;;;;1.20;95761.00;;;;8263082;28;20243;-74
2023/01/20 06:51:18;;;;;;;24.50;12.60;;;;;1.20;95764.00;;;;8267210;28;20497;-75
2023/01/20 06:55:22;;;;;;;29.47;14.90;;;;;1.20;95767.00;;;;8266923;28;20198;-75
2023/01/20 06:59:26;;;;;;;32.37;14.20;;;;;1.20;95777.00;;;;8263429;28;20196;-74
2023/01/20 07:03:29;;;;;;;34.80;15.27;;;;;1.20;95785.00;;;;8265369;28;20225;-74
2023/01/20 07:07:35;;;;;;;28.47;13.30;;;;;1.20;95781.00;;;;8266086;28;20205;-74
2023/01/20 07:11:40;;;;;;;31.83;14.63;;;;;1.20;95796.00;;;;8265758;28;20242;-73
2023/01/20 07:15:48;;;;;;;30.10;13.83;;;;;1.20;95798.00;;;;8266609;28;20205;-73
2023/01/20 07:19:51;;;;;;;29.23;14.00;;;;;1.30;95801.00;;;;8264702;28;20248;-71
2023/01/20 07:23:54;;;;;;;29.70;14.67;;;;;1.30;95813.00;;;;8266666;28;20226;-70
2023/01/20 07:27:59;;;;;;;29.03;14.43;;;;;1.40;95814.00;;;;8248537;28;20396;-70
2023/01/20 07:32:06;;;;;;;29.67;15.10;;;;;1.40;95824.00;;;;8266795;28;20701;-70
2023/01/20 07:36:13;;;;;;;31.90;15.40;;;;;1.40;95824.00;;;;8264803;28;20265;-70
2023/01/20 07:40:18;;;;;;;32.73;15.30;;;;;1.50;95831.00;;;;8266280;28;20206;-71
2023/01/20 07:44:23;;;;;;;34.03;15.83;;;;;1.50;95838.00;;;;8265751;28;20226;-71
2023/01/20 07:48:30;;;;;;;33.00;15.83;;;;;1.60;95844.00;;;;8265375;28;20256;-71
2023/01/20 07:52:33;;;;;;;35.37;16.13;;;;;1.60;95849.00;;;;8266062;28;20186;-69
2023/01/20 07:56:37;;;;;;;32.87;16.00;;;;;1.60;95858.00;;;;8264279;28;20231;-70
2023/01/20 08:00:48;;;;;;;35.00;15.50;;;;;1.70;95854.00;;;;8265586;28;20198;-70
2023/01/20 08:04:52;;;;;;;33.43;16.50;;;;;1.80;95859.00;;;;8264324;28;20234;-70
2023/01/20 08:09:00;;;;;;;36.30;16.27;;;;;1.80;95859.00;;;;8248096;28;20194;-70
2023/01/20 08:13:03;;;;;;;37.77;17.07;;;;;1.90;95870.00;;;;8265459;28;20295;-69
2023/01/20 08:17:09;;;;;;;36.93;16.60;;;;;2.00;95872.00;;;;8265192;28;20202;-69
2023/01/20 08:21:18;;;;;;;39.63;17.67;;;;;2.10;95880.00;;;;8264599;28;20245;-70
2023/01/20 08:25:23;;;;;;;36.53;18.00;;;;;2.20;95878.00;;;;8265659;28;20660;-70
2023/01/20 08:29:26;;;;;;;37.67;18.17;;;;;2.20;95886.00;;;;8259182;28;20202;-70
2023/01/20 08:33:37;;;;;;;34.00;17.27;;;;;2.30;95888.00;;;;8262935;28;20257;-69
2023/01/20 08:37:51;;;;;;;39.30;19.53;;;;;2.40;95888.00;;;;8261448;28;20193;-69
2023/01/20 08:41:57;;;;;;;35.60;18.17;;;;;2.50;95890.00;;;;8270908;28;20206;-68
2023/01/20 08:46:01;;;;;;;38.20;18.43;;;;;2.60;95903.00;;;;8267707;28;20260;-69
2023/01/20 08:50:07;;;;;;;35.47;18.07;;;;;2.70;95914.00;;;;8269136;28;20197;-69
2023/01/20 08:54:13;;;;;;;40.10;17.47;;;;;2.80;95922.00;;;;8270206;28;20296;-67
2023/01/20 08:58:16;;;;;;;36.73;18.20;;;;;2.90;95921.00;;;;8269635;28;20643;-68
2023/01/20 09:02:21;;;;;;;35.53;17.87;;;;;2.90;95919.00;;;;8269947;28;20226;-68
2023/01/20 09:06:31;;;;;;;41.57;19.07;;;;;3.00;95931.00;;;;8269797;28;20555;-68
2023/01/20 09:10:35;;;;;;;37.83;17.57;;;;;3.10;95935.00;;;;8262871;28;20187;-64
2023/01/20 09:14:38;;;;;;;36.63;17.33;;;;;3.10;95931.00;;;;8269438;28;20207;-63
2023/01/20 09:18:42;;;;;;;36.80;16.67;;;;;3.10;95941.00;;;;8268358;28;20198;-65
2023/01/20 09:22:47;;;;;;;39.83;17.03;;;;;3.10;95957.00;;;;8263109;28;20194;-65
2023/01/20 09:26:53;;;;;;;34.17;17.83;;;;;3.00;95956.00;;;;8267362;28;20223;-66
2023/01/20 09:30:59;;;;;;;32.20;16.93;;;;;3.00;95959.00;;;;8269097;28;20276;-66
2023/01/20 09:35:02;;;;;;;35.17;17.70;;;;;3.00;95962.00;;;;8266736;28;20202;-65
2023/01/20 09:43:54;;;;;;;37.20;17.87;;;;;3.10;95974.00;;;;8268490;28;20199;-65
2023/01/20 09:48:12;;;;;;;37.13;18.03;;;;;3.30;95973.00;;;;8267046;28;20233;-65
2023/01/20 09:56:52;;;;;;;39.63;17.73;;;;;3.40;95975.00;;;;8268031;28;20201;-65
2023/01/20 10:01:05;;;;;;;33.87;16.60;;;;;3.30;95986.00;;;;8263739;28;20202;-66
2023/01/20 10:05:13;;;;;;;34.70;17.40;;;;;3.20;95970.00;;;;8268054;28;20233;-66
2023/01/20 10:09:24;;;;;;;38.33;18.33;;;;;3.20;95973.00;;;;8267910;28;20290;-66
2023/01/20 10:13:34;;;;;;;38.13;16.53;;;;;3.20;95979.00;;;;8250758;28;20203;-66
2023/01/20 10:17:41;;;;;;;30.43;16.57;;;;;3.10;95984.00;;;;8268478;28;20190;-67
2023/01/20 10:21:48;;;;;;;33.63;16.63;;;;;3.10;95982.00;;;;8265505;28;20514;-67
2023/01/20 10:26:08;;;;;;;39.53;17.77;;;;;3.10;95978.00;;;;8264491;28;20260;-67
2023/01/20 10:30:15;;;;;;;33.93;17.23;;;;;3.10;95985.00;;;;8266630;28;20650;-67
2023/01/20 10:34:21;;;;;;;36.80;17.63;;;;;2.90;95978.00;;;;8266547;28;20208;-66
2023/01/20 10:38:34;;;;;;;37.97;18.60;;;;;2.90;95982.00;;;;8266420;28;20198;-66
2023/01/20 10:42:37;;;;;;;48.47;18.83;;;;;2.90;95983.00;;;;8268023;28;20182;-66
2023/01/20 10:46:58;;;;;;;40.80;19.10;;;;;2.90;95977.00;;;;8266639;28;20237;-66
2023/01/20 10:51:13;;;;;;;38.43;18.20;;;;;3.00;95986.00;;;;8250442;28;20195;-66
2023/01/20 10:55:32;;;;;;;36.77;18.40;;;;;3.10;95981.00;;;;8266825;28;20680;-67
2023/01/20 10:59:40;;;;;;;39.80;19.30;;;;;3.20;95979.00;;;;8265049;28;20202;-66
2023/01/20 11:03:48;;;;;;;36.07;18.97;;;;;3.40;95974.00;;;;8265823;28;20225;-66
2023/01/20 11:07:54;;;;;;;40.73;18.93;;;;;3.40;95976.00;;;;8265695;28;20218;-67
2023/01/20 11:12:03;;;;;;;43.50;19.53;;;;;3.40;95971.00;;;;8262634;28;20229;-68
2023/01/20 11:16:17;;;;;;;39.73;18.63;;;;;3.30;95981.00;;;;8264178;28;20221;-66
2023/01/20 11:20:26;;;;;;;41.63;19.13;;;;;3.40;95979.00;;;;8248711;28;20713;-65
2023/01/20 11:24:42;;;;;;;40.50;18.57;;;;;3.50;95981.00;;;;8266134;28;20221;-66
2023/01/20 11:28:56;;;;;;;43.07;18.53;;;;;3.40;95976.00;;;;8267117;28;20677;-68
2023/01/20 11:33:16;;;;;;;38.37;16.90;;;;;3.50;95985.00;;;;8266460;28;20220;-68
2023/01/20 11:37:31;;;;;;;39.87;17.37;;;;;3.60;95991.00;;;;8266586;28;20268;-67
2023/01/20 11:41:37;;;;;;;36.70;17.33;;;;;3.80;95984.00;;;;8264819;28;20195;-67
2023/01/20 11:45:48;;;;;;;33.73;18.40;;;;;4.00;95985.00;;;;8246230;28;20245;-68
2023/01/20 11:50:19;;;;;;;32.60;16.40;;;;;4.20;95992.00;;;;8261197;28;20568;-68
2023/01/20 11:54:30;;;;;;;29.73;14.77;;;;;4.20;95984.00;;;;8266059;28;20227;-69
2023/01/20 11:58:54;;;;;;;27.53;14.07;;;;;3.80;95987.00;;;;8264773;28;20249;-69
2023/01/20 12:03:00;;;;;;;32.13;14.40;;;;;3.80;95985.00;;;;8265230;28;20272;-69
2023/01/20 12:07:07;;;;;;;29.30;13.67;;;;;3.60;95994.00;;;;8265516;28;20533;-70
2023/01/20 12:11:15;;;;;;;24.13;11.20;;;;;3.40;95990.00;;;;8266859;28;20199;-69
2023/01/20 12:15:21;;;;;;;24.33;10.27;;;;;3.20;95994.00;;;;8270990;28;20196;-69
2023/01/20 12:19:32;;;;;;;18.50;8.80;;;;;3.10;95993.00;;;;8271211;28;20204;-69
2023/01/20 12:23:45;;;;;;;16.03;6.93;;;;;3.10;96007.00;;;;8271585;28;20259;-69
2023/01/20 12:27:53;;;;;;;12.40;7.57;;;;;3.00;95999.00;;;;8271251;28;20249;-69
2023/01/20 12:31:56;;;;;;;11.83;7.17;;;;;3.00;96002.00;;;;8271559;28;20201;-68
2023/01/20 12:36:20;;;;;;;11.93;6.53;;;;;3.10;96004.00;;;;8272253;28;20631;-68
2023/01/20 12:40:32;;;;;;;17.60;8.07;;;;;3.00;95993.00;;;;8270897;28;20261;-69
2023/01/20 12:44:44;;;;;;;14.10;7.10;;;;;2.90;96001.00;;;;8270956;28;20198;-68
2023/01/20 12:49:01;;;;;;;16.77;6.40;;;;;2.90;96017.00;;;;8271623;28;20272;-68
2023/01/20 12:53:21;;;;;;;17.07;7.53;;;;;2.80;96011.00;;;;8270834;28;20204;-68
2023/01/20 12:57:48;;;;;;;14.30;7.37;;;;;2.90;96012.00;;;;8269752;28;20349;-68
2023/01/20 13:02:24;;;;;;;14.03;6.60;;;;;3.00;96015.00;;;;8269161;28;20225;-68
2023/01/20 13:06:53;;;;;;;14.40;6.93;;;;;3.30;96024.00;;;;8261810;28;20224;-68
2023/01/20 13:11:11;;;;;;;10.33;5.90;;;;;3.50;96020.00;;;;8270447;28;20274;-69
2023/01/20 13:15:23;;;;;;;11.63;6.30;;;;;3.50;96031.00;;;;8269783;28;20251;-69
2023/01/20 13:19:33;;;;;;;18.63;6.33;;;;;3.40;96027.00;;;;8271246;28;20229;-69
2023/01/20 13:23:37;;;;;;;11.33;5.90;;;;;3.40;96030.00;;;;8270463;28;20249;-69
2023/01/20 13:27:40;;;;;;;11.93;6.00;;;;;3.30;96028.00;;;;8269871;28;20231;-69
2023/01/20 13:31:46;;;;;;;11.03;5.00;;;;;3.20;96032.00;;;;8270243;28;20248;-69
2023/01/20 13:35:50;;;;;;;8.53;4.20;;;;;3.00;96041.00;;;;8269152;28;20241;-69
2023/01/20 13:39:58;;;;;;;12.07;4.90;;;;;2.90;96041.00;;;;8269367;28;20195;-70
2023/01/20 13:44:24;;;;;;;11.47;5.17;;;;;2.90;96039.00;;;;8269009;28;20312;-70
2023/01/20 13:48:31;;;;;;;8.13;4.07;;;;;2.90;96048.00;;;;8269751;28;20233;-70
2023/01/20 13:53:15;;;;;;;7.33;3.83;;;;;2.90;96052.00;;;;8268629;28;20206;-70
2023/01/20 13:57:44;;;;;;;13.10;3.90;;;;;3.00;96051.00;;;;8268628;28;20280;-70
2023/01/20 14:01:47;;;;;;;11.90;3.90;;;;;3.00;96053.00;;;;8269514;28;20678;-69
2023/01/20 14:05:53;;;;;;;6.87;2.60;;;;;2.90;96056.00;;;;8270167;28;20263;-69
2023/01/20 14:10:00;;;;;;;14.20;3.70;;;;;2.80;96063.00;;;;8251608;28;20681;-70
2023/01/20 14:14:05;;;;;;;7.60;3.33;;;;;2.70;96065.00;;;;8251897;28;20204;-70
2023/01/20 14:18:15;;;;;;;5.27;3.27;;;;;2.50;96067.00;;;;8268405;28;20195;-70
2023/01/20 14:22:24;;;;;;;7.80;4.33;;;;;2.50;96078.00;;;;8268323;28;20197;-70
2023/01/20 14:26:35;;;;;;;6.80;3.27;;;;;2.50;96079.00;;;;8268335;28;20281;-70
2023/01/20 14:30:42;;;;;;;4.47;2.27;;;;;2.50;96083.00;;;;8267599;28;20201;-70
2023/01/20 14:34:53;;;;;;;4.07;2.47;;;;;2.40;96084.00;;;;8268283;28;20243;-69
2023/01/20 14:39:00;;;;;;;7.47;2.50;;;;;2.30;96091.00;;;;8267959;28;20240;-69
2023/01/20 14:43:19;;;;;;;4.57;2.73;;;;;2.30;96094.00;;;;8268112;28;20636;-70
2023/01/20 14:47:26;;;;;;;6.37;2.63;;;;;2.30;96100.00;;;;8268325;28;20220;-70
2023/01/20 14:51:41;;;;;;;6.20;2.33;;;;;2.30;96106.00;;;;8267037;28;20196;-70
2023/01/20 14:56:06;;;;;;;3.73;2.23;;;;;2.20;96111.00;;;;8266799;28;20206;-70
2023/01/20 15:00:26;;;;;;;5.83;2.50;;;;;2.20;96119.00;;;;8248640;28;20255;-73
2023/01/20 15:08:56;;;;;;;5.97;3.33;;;;;2.20;96130.00;;;;8267053;28;20691;-73
2023/01/20 15:13:22;;;;;;;5.40;2.57;;;;;2.10;96131.00;;;;8266704;28;20568;-73
2023/01/20 15:17:29;;;;;;;6.87;2.90;;;;;2.10;96146.00;;;;8265906;28;20203;-71
2023/01/20 15:21:37;;;;;;;7.47;2.97;;;;;2.10;96144.00;;;;8266132;28;20185;-72
2023/01/20 15:25:42;;;;;;;8.10;2.50;;;;;2.00;96145.00;;;;8264047;28;20253;-72
2023/01/20 15:30:13;;;;;;;8.23;4.63;;;;;2.10;96156.00;;;;8248266;28;20693;-72
2023/01/20 15:34:23;;;;;;;5.50;3.60;;;;;2.00;96166.00;;;;8266288;28;20202;-73
2023/01/20 15:38:32;;;;;;;8.00;3.67;;;;;2.00;96166.00;;;;8261377;28;20227;-72
2023/01/20 15:42:36;;;;;;;9.50;3.70;;;;;1.90;96171.00;;;;8263743;28;20202;-73
2023/01/20 15:46:41;;;;;;;5.53;3.50;;;;;1.90;96174.00;;;;8264629;28;20242;-73
2023/01/20 15:50:49;;;;;;;3.93;2.70;;;;;1.80;96179.00;;;;8271945;28;20199;-74
2023/01/20 15:54:55;;;;;;;10.73;3.00;;;;;1.70;96177.00;;;;8272650;28;20236;-74
2023/01/20 15:58:58;;;;;;;6.90;3.50;;;;;1.60;96183.00;;;;8271428;28;20655;-73
2023/01/20 16:03:05;;;;;;;11.00;3.57;;;;;1.60;96191.00;;;;8270805;28;20281;-74
2023/01/20 16:07:20;;;;;;;8.43;4.53;;;;;1.60;96190.00;;;;8272271;28;20227;-73
2023/01/20 16:11:23;;;;;;;11.67;4.03;;;;;1.60;96189.00;;;;8271900;28;20586;-73
2023/01/20 16:15:26;;;;;;;6.17;3.60;;;;;1.50;96198.00;;;;8270804;28;20195;-73
2023/01/20 16:19:29;;;;;;;9.10;4.17;;;;;1.50;96192.00;;;;8271151;28;20195;-72
2023/01/20 16:23:42;;;;;;;9.37;4.20;;;;;1.40;96192.00;;;;8269024;28;20250;-73
2023/01/20 16:27:56;;;;;;;8.20;4.17;;;;;1.40;96200.00;;;;8271013;28;20225;-72
2023/01/20 16:31:59;;;;;;;14.40;5.13;;;;;1.30;96211.00;;;;8271847;28;20267;-72
2023/01/20 16:36:10;;;;;;;9.93;5.03;;;;;1.20;96211.00;;;;8271375;28;20196;-73
2023/01/20 16:40:19;;;;;;;8.33;5.07;;;;;1.10;96201.00;;;;8270671;28;20695;-73
2023/01/20 16:44:41;;;;;;;11.50;5.23;;;;;1.10;96213.00;;;;8265101;28;20204;-74
2023/01/20 16:48:58;;;;;;;13.10;5.83;;;;;1.00;96210.00;;;;8267553;28;20240;-72
2023/01/20 16:53:01;;;;;;;10.30;5.30;;;;;0.90;96219.00;;;;8267817;28;20210;-72
2023/01/20 16:57:06;;;;;;;11.27;6.57;;;;;0.80;96229.00;;;;8269450;28;20205;-72
2023/01/20 17:01:20;;;;;;;12.20;5.93;;;;;0.70;96223.00;;;;8269016;28;20232;-72
2023/01/20 17:05:29;;;;;;;8.57;5.23;;;;;0.70;96227.00;;;;8269712;28;20250;-71
2023/01/20 17:09:33;;;;;;;14.00;6.70;;;;;0.70;96239.00;;;;8253492;28;20234;-71
2023/01/20 17:13:38;;;;;;;13.63;6.63;;;;;0.60;96245.00;;;;8268959;28;20203;-73
2023/01/20 17:17:48;;;;;;;12.20;6.27;;;;;0.50;96244.00;;;;8269212;28;20229;-73
2023/01/20 17:21:55;;;;;;;13.03;6.67;;;;;0.40;96249.00;;;;8269647;28;20205;-72
2023/01/20 17:26:01;;;;;;;10.50;6.53;;;;;0.40;96257.00;;;;8268412;28;20191;-73
2023/01/20 17:30:13;;;;;;;13.47;7.03;;;;;0.30;96256.00;;;;8268743;28;20475;-73
2023/01/20 17:34:17;;;;;;;11.47;6.60;;;;;0.30;96265.00;;;;8269682;28;20200;-73
2023/01/20 17:38:22;;;;;;;23.07;9.20;;;;;0.20;96272.00;;;;8268507;28;20207;-73
2023/01/20 17:42:27;;;;;;;11.70;6.17;;;;;0.20;96270.00;;;;8269264;28;20199;-72
2023/01/20 17:46:35;;;;;;;13.00;7.07;;;;;0.20;96275.00;;;;8250664;28;20195;-73
2023/01/20 17:50:39;;;;;;;12.80;6.60;;;;;0.10;96271.00;;;;8268934;28;20222;-74
2023/01/20 17:54:44;;;;;;;16.63;6.83;;;;;0.00;96276.00;;;;8268796;28;20207;-73
2023/01/20 17:58:48;;;;;;;16.13;7.27;;;;;0.00;96282.00;;;;8268499;28;20195;-73
2023/01/20 18:02:56;;;;;;;12.97;6.67;;;;;-0.10;96286.00;;;;8267911;28;20296;-75
2023/01/20 18:06:59;;;;;;;11.97;6.60;;;;;0.00;96293.00;;;;8268863;28;20607;-73
2023/01/20 18:11:09;;;;;;;15.23;6.83;;;;;0.00;96286.00;;;;8266567;28;20230;-73
2023/01/20 18:15:18;;;;;;;16.87;7.50;;;;;0.00;96296.00;;;;8268659;28;20207;-74
2023/01/20 18:19:24;;;;;;;20.10;8.00;;;;;0.10;96289.00;;;;8268463;28;20199;-75
2023/01/20 18:23:28;;;;;;;16.33;6.70;;;;;0.10;96299.00;;;;8267147;28;20200;-74
2023/01/20 18:27:32;;;;;;;11.00;5.87;;;;;0.10;96303.00;;;;8267524;28;20199;-74
2023/01/20 18:31:36;;;;;;;18.33;8.47;;;;;0.10;96300.00;;;;8268105;28;20210;-74
2023/01/20 18:35:41;;;;;;;14.57;7.33;;;;;0.10;96303.00;;;;8267420;28;20684;-73
2023/01/20 18:39:44;;;;;;;13.60;6.33;;;;;0.00;96304.00;;;;8266565;28;20194;-73
2023/01/20 18:43:53;;;;;;;14.33;6.50;;;;;0.00;96311.00;;;;8267031;28;20195;-73
2023/01/20 18:47:57;;;;;;;15.00;7.23;;;;;-0.10;96308.00;;;;8266706;28;20233;-73
2023/01/20 18:56:19;;;;;;;14.50;6.57;;;;;-0.10;96303.00;;;;8264611;28;20198;-73
2023/01/20 19:00:23;;;;;;;18.80;8.30;;;;;-0.10;96305.00;;;;8266693;28;20199;-73
2023/01/20 19:04:28;;;;;;;18.30;8.27;;;;;-0.10;96309.00;;;;8266112;28;20548;-73
2023/01/20 19:08:36;;;;;;;15.30;7.40;;;;;-0.10;96320.00;;;;8266885;28;20636;-73
2023/01/20 19:12:39;;;;;;;17.93;7.00;;;;;-0.10;96313.00;;;;8266580;28;20200;-73
2023/01/20 19:16:47;;;;;;;14.97;6.73;;;;;-0.10;96323.00;;;;8266053;28;20202;-73
2023/01/20 19:20:53;;;;;;;14.97;7.77;;;;;-0.10;96316.00;;;;8248151;28;20202;-71
2023/01/20 19:24:59;;;;;;;14.13;8.07;;;;;-0.10;96332.00;;;;8265556;28;20231;-71
2023/01/20 19:29:04;;;;;;;18.10;7.73;;;;;-0.10;96330.00;;;;8266064;28;20253;-71
2023/01/20 19:33:10;;;;;;;24.07;7.97;;;;;-0.10;96328.00;;;;8266727;28;20300;-71
2023/01/20 19:37:28;;;;;;;20.80;9.00;;;;;0.00;96337.00;;;;8265069;28;20245;-71
2023/01/20 19:41:35;;;;;;;56.80;16.27;;;;;0.10;96342.00;;;;8265997;28;20326;-71
2023/01/20 19:45:42;;;;;;;22.80;9.67;;;;;0.20;96341.00;;;;8265227;28;20285;-71
2023/01/20 19:49:49;;;;;;;16.77;8.53;;;;;0.30;96351.00;;;;8265173;28;20223;-71
2023/01/20 19:53:58;;;;;;;23.27;9.47;;;;;0.30;96341.00;;;;8263517;28;20207;-71
2023/01/20 19:58:05;;;;;;;23.33;10.10;;;;;0.40;96351.00;;;;8248353;28;20205;-71
2023/01/20 20:02:10;;;;;;;16.50;8.73;;;;;0.40;96355.00;;;;8245972;28;20231;-71
2023/01/20 20:06:27;;;;;;;21.40;8.90;;;;;0.50;96362.00;;;;8260562;28;20199;-71
2023/01/20 20:10:30;;;;;;;21.60;9.63;;;;;0.50;96350.00;;;;8265252;28;20227;-70
2023/01/20 20:14:39;;;;;;;13.47;7.07;;;;;0.60;96359.00;;;;8265411;28;20270;-70
2023/01/20 20:18:45;;;;;;;20.10;8.90;;;;;0.60;96368.00;;;;8247557;28;20518;-70
2023/01/20 20:22:48;;;;;;;22.47;9.53;;;;;0.70;96362.00;;;;8265410;28;20277;-70
2023/01/20 20:26:59;;;;;;;18.03;8.90;;;;;0.70;96371.00;;;;8248209;28;20199;-70
2023/01/20 20:31:14;;;;;;;15.43;8.87;;;;;0.70;96365.00;;;;8263666;28;20274;-70
2023/01/20 20:35:19;;;;;;;20.23;9.50;;;;;0.70;96377.00;;;;8264932;28;20196;-70
2023/01/20 20:39:25;;;;;;;21.73;9.57;;;;;0.70;96375.00;;;;8269941;28;20197;-71
2023/01/20 20:43:28;;;;;;;19.27;9.70;;;;;0.70;96377.00;;;;8270177;28;20191;-71
2023/01/20 20:47:38;;;;;;;17.43;8.73;;;;;0.70;96371.00;;;;8265074;28;20195;-70
2023/01/20 20:51:51;;;;;;;19.60;9.20;;;;;0.70;96375.00;;;;8271336;28;20285;-71
2023/01/20 20:55:58;;;;;;;20.37;8.37;;;;;0.70;96368.00;;;;8270836;28;20688;-71